sensor_id;sensor_type;location;lat;lon;timestamp;pressure;altitude;pressure_sealevel;temperature;humidity
18527;BME280;9393;42.158;24.748;2022-11-20T00:02:48;98982.16;;;15.07;98.80
18527;BME280;9393;42.158;24.748;2022-11-20T00:05:52;98987.00;;;14.74;100.00
18527;BME280;9393;42.158;24.748;2022-11-20T00:08:57;98980.72;;;15.04;99.39
18527;BME280;9393;42.158;24.748;2022-11-20T00:12:02;98989.09;;;15.14;98.10
18527;BME280;9393;42.158;24.748;2022-11-20T00:15:09;99007.72;;;14.84;100.00
18527;BME280;9393;42.158;24.748;2022-11-20T00:18:13;98986.72;;;14.84;99.63
18527;BME280;9393;42.158;24.748;2022-11-20T00:21:22;98990.31;;;14.97;98.68
18527;BME280;9393;42.158;24.748;2022-11-20T00:24:26;98996.94;;;14.64;100.00
18527;BME280;9393;42.158;24.748;2022-11-20T00:27:30;98985.44;;;14.94;99.29
18527;BME280;9393;42.158;24.748;2022-11-20T00:30:35;98969.97;;;14.99;98.49
18527;BME280;9393;42.158;24.748;2022-11-20T00:33:39;98986.84;;;15.11;97.90
18527;BME280;9393;42.158;24.748;2022-11-20T00:36:43;98991.13;;;15.12;97.50
18527;BME280;9393;42.158;24.748;2022-11-20T00:39:47;99001.63;;;14.98;97.89
18527;BME280;9393;42.158;24.748;2022-11-20T00:42:50;98982.06;;;15.00;97.73
18527;BME280;9393;42.158;24.748;2022-11-20T00:45:59;98997.38;;;14.53;100.00
18527;BME280;9393;42.158;24.748;2022-11-20T00:49:03;98971.59;;;14.42;100.00
18527;BME280;9393;42.158;24.748;2022-11-20T00:52:06;98973.03;;;14.88;98.52
18527;BME280;9393;42.158;24.748;2022-11-20T00:55:11;98993.13;;;14.96;98.43
18527;BME280;9393;42.158;24.748;2022-11-20T00:58:14;98988.34;;;14.70;99.76
18527;BME280;9393;42.158;24.748;2022-11-20T01:01:21;98990.97;;;14.70;100.00
18527;BME280;9393;42.158;24.748;2022-11-20T01:04:26;98988.78;;;14.88;99.23
18527;BME280;9393;42.158;24.748;2022-11-20T01:07:32;98991.66;;;14.93;98.96
18527;BME280;9393;42.158;24.748;2022-11-20T01:10:38;98995.03;;;15.02;97.72
18527;BME280;9393;42.158;24.748;2022-11-20T01:13:43;98976.84;;;14.86;98.15
18527;BME280;9393;42.158;24.748;2022-11-20T01:16:51;98994.41;;;14.56;99.76
18527;BME280;9393;42.158;24.748;2022-11-20T01:19:55;98970.97;;;14.17;100.00
18527;BME280;9393;42.158;24.748;2022-11-20T01:22:58;98961.28;;;14.55;100.00
18527;BME280;9393;42.158;24.748;2022-11-20T01:26:03;98947.06;;;14.49;100.00
18527;BME280;9393;42.158;24.748;2022-11-20T01:29:13;98965.91;;;14.53;100.00
18527;BME280;9393;42.158;24.748;2022-11-20T01:32:18;98958.56;;;14.63;100.00
18527;BME280;9393;42.158;24.748;2022-11-20T01:35:22;98949.25;;;14.75;100.00
18527;BME280;9393;42.158;24.748;2022-11-20T01:38:25;98946.81;;;14.59;100.00
18527;BME280;9393;42.158;24.748;2022-11-20T01:41:30;98951.78;;;14.54;100.00
18527;BME280;9393;42.158;24.748;2022-11-20T01:44:54;98947.78;;;14.87;100.00
18527;BME280;9393;42.158;24.748;2022-11-20T01:48:00;98936.44;;;15.01;100.00
18527;BME280;9393;42.158;24.748;2022-11-20T01:51:06;98929.00;;;15.05;99.34
18527;BME280;9393;42.158;24.748;2022-11-20T01:54:15;98929.34;;;15.16;98.67
18527;BME280;9393;42.158;24.748;2022-11-20T01:57:21;98921.19;;;15.11;99.00
18527;BME280;9393;42.158;24.748;2022-11-20T02:00:27;98921.34;;;15.25;97.89
18527;BME280;9393;42.158;24.748;2022-11-20T02:03:32;98918.91;;;15.23;97.70
18527;BME280;9393;42.158;24.748;2022-11-20T02:06:40;98938.56;;;15.27;97.62
18527;BME280;9393;42.158;24.748;2022-11-20T02:09:44;98924.22;;;15.30;96.84
18527;BME280;9393;42.158;24.748;2022-11-20T02:12:48;98921.59;;;15.30;97.01
18527;BME280;9393;42.158;24.748;2022-11-20T02:16:13;98918.06;;;15.37;96.21
18527;BME280;9393;42.158;24.748;2022-11-20T02:19:23;98921.59;;;14.94;99.04
18527;BME280;9393;42.158;24.748;2022-11-20T02:22:32;98921.16;;;15.26;97.64
18527;BME280;9393;42.158;24.748;2022-11-20T02:25:41;98918.78;;;15.31;97.01
18527;BME280;9393;42.158;24.748;2022-11-20T02:28:47;98911.41;;;15.41;95.96
18527;BME280;9393;42.158;24.748;2022-11-20T02:31:51;98897.25;;;15.21;97.27
18527;BME280;9393;42.158;24.748;2022-11-20T02:34:58;98886.31;;;15.17;97.96
18527;BME280;9393;42.158;24.748;2022-11-20T02:38:02;98876.75;;;15.10;99.52
18527;BME280;9393;42.158;24.748;2022-11-20T02:41:08;98897.16;;;14.93;100.00
18527;BME280;9393;42.158;24.748;2022-11-20T02:44:12;98879.00;;;15.13;100.00
18527;BME280;9393;42.158;24.748;2022-11-20T02:47:16;98898.75;;;15.09;100.00
18527;BME280;9393;42.158;24.748;2022-11-20T02:50:19;98910.38;;;15.21;100.00
18527;BME280;9393;42.158;24.748;2022-11-20T02:53:23;98915.63;;;15.21;100.00
18527;BME280;9393;42.158;24.748;2022-11-20T02:56:29;98904.97;;;15.44;98.15
18527;BME280;9393;42.158;24.748;2022-11-20T02:59:35;98905.25;;;15.49;97.85
18527;BME280;9393;42.158;24.748;2022-11-20T03:02:39;98900.81;;;14.78;100.00
18527;BME280;9393;42.158;24.748;2022-11-20T03:05:43;98890.50;;;15.12;100.00
18527;BME280;9393;42.158;24.748;2022-11-20T03:08:46;98888.88;;;15.11;100.00
18527;BME280;9393;42.158;24.748;2022-11-20T03:11:51;98890.25;;;15.28;100.00
18527;BME280;9393;42.158;24.748;2022-11-20T03:14:56;98902.72;;;15.20;100.00
18527;BME280;9393;42.158;24.748;2022-11-20T03:17:59;98911.03;;;15.23;100.00
18527;BME280;9393;42.158;24.748;2022-11-20T03:21:04;98904.09;;;15.37;98.91
18527;BME280;9393;42.158;24.748;2022-11-20T03:24:10;98894.53;;;14.93;100.00
18527;BME280;9393;42.158;24.748;2022-11-20T03:27:15;98881.69;;;14.98;100.00
18527;BME280;9393;42.158;24.748;2022-11-20T03:30:19;98871.31;;;15.11;100.00
18527;BME280;9393;42.158;24.748;2022-11-20T03:33:30;98881.19;;;15.09;100.00
18527;BME280;9393;42.158;24.748;2022-11-20T03:36:34;98885.00;;;15.28;99.92
18527;BME280;9393;42.158;24.748;2022-11-20T03:39:37;98896.44;;;15.42;98.86
18527;BME280;9393;42.158;24.748;2022-11-20T03:42:43;98900.97;;;15.48;98.40
18527;BME280;9393;42.158;24.748;2022-11-20T03:45:49;98897.03;;;15.37;99.83
18527;BME280;9393;42.158;24.748;2022-11-20T03:48:53;98894.75;;;15.34;100.00
18527;BME280;9393;42.158;24.748;2022-11-20T03:51:57;98899.91;;;15.42;99.43
18527;BME280;9393;42.158;24.748;2022-11-20T03:55:01;98902.91;;;15.39;100.00
18527;BME280;9393;42.158;24.748;2022-11-20T03:58:06;98893.16;;;15.33;100.00
18527;BME280;9393;42.158;24.748;2022-11-20T04:01:12;98892.38;;;15.39;100.00
18527;BME280;9393;42.158;24.748;2022-11-20T04:04:16;98897.91;;;15.23;100.00
18527;BME280;9393;42.158;24.748;2022-11-20T04:07:20;98897.34;;;15.49;100.00
18527;BME280;9393;42.158;24.748;2022-11-20T04:10:24;98897.63;;;15.54;100.00
18527;BME280;9393;42.158;24.748;2022-11-20T04:13:29;98905.13;;;15.57;100.00
18527;BME280;9393;42.158;24.748;2022-11-20T04:16:34;98899.00;;;15.50;100.00
18527;BME280;9393;42.158;24.748;2022-11-20T04:19:38;98905.78;;;15.44;100.00
18527;BME280;9393;42.158;24.748;2022-11-20T04:22:42;98907.22;;;15.47;100.00
18527;BME280;9393;42.158;24.748;2022-11-20T04:25:46;98907.47;;;15.52;100.00
18527;BME280;9393;42.158;24.748;2022-11-20T04:28:51;98906.75;;;15.58;100.00
18527;BME280;9393;42.158;24.748;2022-11-20T04:31:55;98916.53;;;15.28;100.00
18527;BME280;9393;42.158;24.748;2022-11-20T04:34:58;98907.22;;;15.47;100.00
18527;BME280;9393;42.158;24.748;2022-11-20T04:38:02;98899.88;;;15.57;100.00
18527;BME280;9393;42.158;24.748;2022-11-20T04:41:09;98896.19;;;15.51;100.00
18527;BME280;9393;42.158;24.748;2022-11-20T04:44:17;98908.41;;;15.65;100.00
18527;BME280;9393;42.158;24.748;2022-11-20T04:47:21;98907.25;;;15.68;100.00
18527;BME280;9393;42.158;24.748;2022-11-20T04:50:24;98904.34;;;15.63;100.00
18527;BME280;9393;42.158;24.748;2022-11-20T04:53:28;98900.69;;;15.57;100.00
18527;BME280;9393;42.158;24.748;2022-11-20T04:56:32;98904.78;;;15.66;100.00
18527;BME280;9393;42.158;24.748;2022-11-20T04:59:37;98904.94;;;15.86;100.00
18527;BME280;9393;42.158;24.748;2022-11-20T05:02:41;98907.00;;;15.91;100.00
18527;BME280;9393;42.158;24.748;2022-11-20T05:05:44;98900.44;;;15.80;100.00
18527;BME280;9393;42.158;24.748;2022-11-20T05:08:48;98894.34;;;16.01;100.00
18527;BME280;9393;42.158;24.748;2022-11-20T05:11:51;98882.69;;;15.82;100.00
18527;BME280;9393;42.158;24.748;2022-11-20T05:14:57;98917.63;;;15.55;100.00
18527;BME280;9393;42.158;24.748;2022-11-20T05:18:01;98928.34;;;15.39;100.00
18527;BME280;9393;42.158;24.748;2022-11-20T05:21:05;98907.97;;;15.62;100.00
18527;BME280;9393;42.158;24.748;2022-11-20T05:24:10;98923.91;;;15.39;100.00
18527;BME280;9393;42.158;24.748;2022-11-20T05:27:13;98922.94;;;15.40;100.00
18527;BME280;9393;42.158;24.748;2022-11-20T05:30:19;98916.50;;;15.64;100.00
18527;BME280;9393;42.158;24.748;2022-11-20T05:33:22;98902.31;;;15.86;100.00
18527;BME280;9393;42.158;24.748;2022-11-20T05:36:26;98900.56;;;15.93;100.00
18527;BME280;9393;42.158;24.748;2022-11-20T05:39:29;98914.28;;;15.89;100.00
18527;BME280;9393;42.158;24.748;2022-11-20T05:42:33;98908.59;;;15.85;100.00
18527;BME280;9393;42.158;24.748;2022-11-20T05:45:39;98910.81;;;16.09;100.00
18527;BME280;9393;42.158;24.748;2022-11-20T05:48:45;98912.66;;;15.88;100.00
18527;BME280;9393;42.158;24.748;2022-11-20T05:51:49;98915.59;;;15.99;100.00
18527;BME280;9393;42.158;24.748;2022-11-20T05:54:53;98919.97;;;16.20;100.00
18527;BME280;9393;42.158;24.748;2022-11-20T05:57:56;98903.72;;;16.10;100.00
18527;BME280;9393;42.158;24.748;2022-11-20T06:01:07;98921.38;;;15.67;100.00
18527;BME280;9393;42.158;24.748;2022-11-20T06:04:11;98918.84;;;15.80;100.00
18527;BME280;9393;42.158;24.748;2022-11-20T06:07:15;98925.09;;;16.00;100.00
18527;BME280;9393;42.158;24.748;2022-11-20T06:10:19;98933.09;;;15.86;100.00
18527;BME280;9393;42.158;24.748;2022-11-20T06:13:22;98932.84;;;16.08;100.00
18527;BME280;9393;42.158;24.748;2022-11-20T06:16:28;98920.63;;;16.01;100.00
18527;BME280;9393;42.158;24.748;2022-11-20T06:19:32;98951.28;;;15.87;100.00
18527;BME280;9393;42.158;24.748;2022-11-20T06:22:35;98924.50;;;15.77;100.00
18527;BME280;9393;42.158;24.748;2022-11-20T06:25:40;98936.00;;;15.76;100.00
18527;BME280;9393;42.158;24.748;2022-11-20T06:28:44;98944.38;;;15.86;100.00
18527;BME280;9393;42.158;24.748;2022-11-20T06:31:50;98956.97;;;15.70;100.00
18527;BME280;9393;42.158;24.748;2022-11-20T06:34:53;98945.28;;;15.72;100.00
18527;BME280;9393;42.158;24.748;2022-11-20T06:37:57;98967.19;;;15.79;100.00
18527;BME280;9393;42.158;24.748;2022-11-20T06:41:01;98959.75;;;16.10;100.00
18527;BME280;9393;42.158;24.748;2022-11-20T06:44:04;98954.66;;;16.02;100.00
18527;BME280;9393;42.158;24.748;2022-11-20T06:47:10;98958.53;;;16.06;100.00
18527;BME280;9393;42.158;24.748;2022-11-20T06:50:13;98967.38;;;16.27;99.69
18527;BME280;9393;42.158;24.748;2022-11-20T06:53:17;98953.50;;;16.39;98.61
18527;BME280;9393;42.158;24.748;2022-11-20T06:56:21;98974.44;;;16.54;97.88
18527;BME280;9393;42.158;24.748;2022-11-20T06:59:24;98961.00;;;16.42;98.34
18527;BME280;9393;42.158;24.748;2022-11-20T07:02:30;98961.28;;;16.54;98.01
18527;BME280;9393;42.158;24.748;2022-11-20T07:05:34;98969.28;;;16.39;98.51
18527;BME280;9393;42.158;24.748;2022-11-20T07:08:38;98951.38;;;16.28;99.31
18527;BME280;9393;42.158;24.748;2022-11-20T07:11:41;98965.28;;;16.15;100.00
18527;BME280;9393;42.158;24.748;2022-11-20T07:14:45;98960.78;;;16.37;99.29
18527;BME280;9393;42.158;24.748;2022-11-20T07:17:50;98943.22;;;16.44;98.25
18527;BME280;9393;42.158;24.748;2022-11-20T07:20:55;98962.00;;;16.41;98.99
18527;BME280;9393;42.158;24.748;2022-11-20T07:23:59;98982.47;;;16.46;98.48
18527;BME280;9393;42.158;24.748;2022-11-20T07:27:04;98969.63;;;16.57;97.75
18527;BME280;9393;42.158;24.748;2022-11-20T07:30:08;98957.63;;;16.55;97.99
18527;BME280;9393;42.158;24.748;2022-11-20T07:33:13;98968.66;;;16.65;97.76
18527;BME280;9393;42.158;24.748;2022-11-20T07:36:17;98969.91;;;16.76;96.87
18527;BME280;9393;42.158;24.748;2022-11-20T07:39:21;98983.06;;;16.76;96.62
18527;BME280;9393;42.158;24.748;2022-11-20T07:42:25;98982.28;;;16.47;98.56
18527;BME280;9393;42.158;24.748;2022-11-20T07:45:30;98991.63;;;16.50;98.54
18527;BME280;9393;42.158;24.748;2022-11-20T07:48:35;98994.34;;;16.63;97.81
18527;BME280;9393;42.158;24.748;2022-11-20T07:51:39;98982.47;;;16.74;97.31
18527;BME280;9393;42.158;24.748;2022-11-20T07:54:43;98981.88;;;16.72;97.27
18527;BME280;9393;42.158;24.748;2022-11-20T07:57:54;98987.16;;;16.78;96.77
18527;BME280;9393;42.158;24.748;2022-11-20T08:01:01;98973.53;;;16.68;97.54
18527;BME280;9393;42.158;24.748;2022-11-20T08:04:07;98971.41;;;16.85;96.31
18527;BME280;9393;42.158;24.748;2022-11-20T08:07:11;98966.31;;;16.83;96.48
18527;BME280;9393;42.158;24.748;2022-11-20T08:10:15;98967.56;;;16.87;96.48
18527;BME280;9393;42.158;24.748;2022-11-20T08:13:19;98970.47;;;17.05;94.91
18527;BME280;9393;42.158;24.748;2022-11-20T08:16:40;98988.34;;;17.16;94.57
18527;BME280;9393;42.158;24.748;2022-11-20T08:19:46;98994.84;;;17.21;94.82
18527;BME280;9393;42.158;24.748;2022-11-20T08:22:50;98979.25;;;17.26;93.94
18527;BME280;9393;42.158;24.748;2022-11-20T08:25:53;98965.91;;;17.34;93.07
18527;BME280;9393;42.158;24.748;2022-11-20T08:28:58;98967.78;;;17.53;92.41
18527;BME280;9393;42.158;24.748;2022-11-20T08:32:01;98974.91;;;17.72;91.93
18527;BME280;9393;42.158;24.748;2022-11-20T08:35:07;98970.50;;;18.18;88.57
18527;BME280;9393;42.158;24.748;2022-11-20T08:38:11;98968.47;;;18.27;88.18
18527;BME280;9393;42.158;24.748;2022-11-20T08:41:15;98953.84;;;18.51;88.02
18527;BME280;9393;42.158;24.748;2022-11-20T08:44:29;98947.28;;;18.66;86.43
18527;BME280;9393;42.158;24.748;2022-11-20T08:47:32;98947.50;;;18.65;85.45
18527;BME280;9393;42.158;24.748;2022-11-20T08:50:37;98949.84;;;18.86;83.93
18527;BME280;9393;42.158;24.748;2022-11-20T08:53:42;98959.38;;;18.94;83.39
18527;BME280;9393;42.158;24.748;2022-11-20T08:56:45;98958.66;;;19.18;83.09
18527;BME280;9393;42.158;24.748;2022-11-20T08:59:49;98958.28;;;19.84;80.42
18527;BME280;9393;42.158;24.748;2022-11-20T09:03:07;98949.34;;;19.85;80.11
18527;BME280;9393;42.158;24.748;2022-11-20T09:06:13;98953.91;;;19.71;80.91
18527;BME280;9393;42.158;24.748;2022-11-20T09:09:17;98954.97;;;20.44;77.63
18527;BME280;9393;42.158;24.748;2022-11-20T09:12:21;98954.97;;;21.47;75.23
18527;BME280;9393;42.158;24.748;2022-11-20T09:15:26;98960.06;;;22.01;72.05
18527;BME280;9393;42.158;24.748;2022-11-20T09:18:30;98950.31;;;21.84;71.87
18527;BME280;9393;42.158;24.748;2022-11-20T09:21:36;98949.97;;;21.80;72.37
18527;BME280;9393;42.158;24.748;2022-11-20T09:24:40;98937.78;;;21.49;73.25
18527;BME280;9393;42.158;24.748;2022-11-20T09:27:44;98932.63;;;21.25;73.73
18527;BME280;9393;42.158;24.748;2022-11-20T09:30:48;98918.59;;;21.36;71.94
18527;BME280;9393;42.158;24.748;2022-11-20T09:33:52;98916.88;;;21.41;72.18
18527;BME280;9393;42.158;24.748;2022-11-20T09:36:57;98913.78;;;21.14;72.82
18527;BME280;9393;42.158;24.748;2022-11-20T09:40:19;98907.97;;;21.36;72.50
18527;BME280;9393;42.158;24.748;2022-11-20T09:43:32;98896.91;;;22.03;70.68
18527;BME280;9393;42.158;24.748;2022-11-20T09:46:49;98888.66;;;22.75;67.92
18527;BME280;9393;42.158;24.748;2022-11-20T09:50:06;98884.72;;;22.65;67.49
18527;BME280;9393;42.158;24.748;2022-11-20T09:53:24;98873.91;;;23.24;66.10
18527;BME280;9393;42.158;24.748;2022-11-20T09:56:33;98864.34;;;23.11;64.24
18527;BME280;9393;42.158;24.748;2022-11-20T09:59:40;98863.53;;;23.10;64.96
18527;BME280;9393;42.158;24.748;2022-11-20T10:02:47;98869.50;;;23.01;65.09
18527;BME280;9393;42.158;24.748;2022-11-20T10:05:54;98878.19;;;22.68;66.17
18527;BME280;9393;42.158;24.748;2022-11-20T10:09:18;98884.72;;;22.65;66.81
18527;BME280;9393;42.158;24.748;2022-11-20T10:12:33;98878.19;;;22.68;66.98
18527;BME280;9393;42.158;24.748;2022-11-20T10:15:48;98873.94;;;22.44;66.45
18527;BME280;9393;42.158;24.748;2022-11-20T10:19:06;98867.25;;;22.30;67.69
18527;BME280;9393;42.158;24.748;2022-11-20T10:22:23;98868.53;;;22.27;67.89
18527;BME280;9393;42.158;24.748;2022-11-20T10:25:37;98866.00;;;21.97;68.92
18527;BME280;9393;42.158;24.748;2022-11-20T10:28:51;98865.63;;;21.82;69.72
18527;BME280;9393;42.158;24.748;2022-11-20T10:32:02;98863.41;;;21.79;70.22
18527;BME280;9393;42.158;24.748;2022-11-20T10:35:16;98859.25;;;21.83;70.24
18527;BME280;9393;42.158;24.748;2022-11-20T10:38:26;98855.34;;;21.74;71.13
18527;BME280;9393;42.158;24.748;2022-11-20T10:41:39;98840.28;;;21.45;72.87
18527;BME280;9393;42.158;24.748;2022-11-20T10:44:49;98836.63;;;21.46;72.47
18527;BME280;9393;42.158;24.748;2022-11-20T10:48:26;98837.22;;;21.48;72.38
18527;BME280;9393;42.158;24.748;2022-11-20T10:51:35;98826.34;;;21.49;72.21
18527;BME280;9393;42.158;24.748;2022-11-20T10:54:45;98827.13;;;21.38;72.66
18527;BME280;9393;42.158;24.748;2022-11-20T10:57:58;98817.69;;;21.42;72.54
18527;BME280;9393;42.158;24.748;2022-11-20T11:01:05;98823.81;;;21.43;72.42
18527;BME280;9393;42.158;24.748;2022-11-20T11:04:33;98817.03;;;21.47;72.72
18527;BME280;9393;42.158;24.748;2022-11-20T11:07:40;98814.00;;;21.32;73.19
18527;BME280;9393;42.158;24.748;2022-11-20T11:10:47;98819.19;;;21.38;72.90
18527;BME280;9393;42.158;24.748;2022-11-20T11:14:04;98807.97;;;21.25;73.42
18527;BME280;9393;42.158;24.748;2022-11-20T11:17:20;98800.09;;;21.06;74.24
18527;BME280;9393;42.158;24.748;2022-11-20T11:20:25;98791.69;;;21.09;74.54
18527;BME280;9393;42.158;24.748;2022-11-20T11:23:31;98788.41;;;20.96;75.85
18527;BME280;9393;42.158;24.748;2022-11-20T11:26:36;98789.59;;;20.70;77.43
18527;BME280;9393;42.158;24.748;2022-11-20T11:29:41;98787.28;;;20.74;77.37
18527;BME280;9393;42.158;24.748;2022-11-20T11:32:45;98782.31;;;20.65;77.07
18527;BME280;9393;42.158;24.748;2022-11-20T11:35:51;98784.75;;;20.67;77.00
18527;BME280;9393;42.158;24.748;2022-11-20T11:38:56;98790.75;;;20.74;76.28
18527;BME280;9393;42.158;24.748;2022-11-20T11:42:00;98771.59;;;20.72;75.04
18527;BME280;9393;42.158;24.748;2022-11-20T11:45:11;98778.69;;;20.78;75.14
18527;BME280;9393;42.158;24.748;2022-11-20T11:48:19;98782.41;;;20.89;74.51
18527;BME280;9393;42.158;24.748;2022-11-20T11:51:26;98786.91;;;20.88;74.47
18527;BME280;9393;42.158;24.748;2022-11-20T11:54:37;98784.34;;;20.82;74.12
18527;BME280;9393;42.158;24.748;2022-11-20T11:57:47;98796.41;;;20.78;73.99
18527;BME280;9393;42.158;24.748;2022-11-20T12:00:58;98794.84;;;20.88;73.75
18527;BME280;9393;42.158;24.748;2022-11-20T12:04:07;98793.00;;;20.89;73.41
18527;BME280;9393;42.158;24.748;2022-11-20T12:07:22;98784.34;;;20.93;73.54
18527;BME280;9393;42.158;24.748;2022-11-20T12:10:53;98788.78;;;20.99;73.37
18527;BME280;9393;42.158;24.748;2022-11-20T12:14:04;98780.78;;;20.88;73.16
18527;BME280;9393;42.158;24.748;2022-11-20T12:17:14;98778.03;;;20.94;71.91
18527;BME280;9393;42.158;24.748;2022-11-20T12:20:19;98766.31;;;21.02;72.08
18527;BME280;9393;42.158;24.748;2022-11-20T12:23:28;98757.31;;;21.03;71.99
18527;BME280;9393;42.158;24.748;2022-11-20T12:26:47;98767.00;;;21.09;71.59
18527;BME280;9393;42.158;24.748;2022-11-20T12:30:00;98782.94;;;20.79;72.53
18527;BME280;9393;42.158;24.748;2022-11-20T12:33:17;98763.34;;;20.80;73.39
18527;BME280;9393;42.158;24.748;2022-11-20T12:36:31;98757.75;;;20.88;73.33
18527;BME280;9393;42.158;24.748;2022-11-20T12:39:41;98755.81;;;20.95;72.70
18527;BME280;9393;42.158;24.748;2022-11-20T12:42:56;98748.31;;;20.92;73.12
18527;BME280;9393;42.158;24.748;2022-11-20T12:46:27;98748.53;;;20.91;73.07
18527;BME280;9393;42.158;24.748;2022-11-20T12:49:41;98751.28;;;20.84;73.34
18527;BME280;9393;42.158;24.748;2022-11-20T12:52:55;98747.00;;;20.83;73.30
18527;BME280;9393;42.158;24.748;2022-11-20T12:56:09;98753.88;;;20.73;74.04
18527;BME280;9393;42.158;24.748;2022-11-20T12:59:28;98765.69;;;20.58;74.04
18527;BME280;9393;42.158;24.748;2022-11-20T13:02:41;98754.94;;;20.72;73.76
18527;BME280;9393;42.158;24.748;2022-11-20T13:05:59;98754.34;;;20.70;73.66
18527;BME280;9393;42.158;24.748;2022-11-20T13:09:13;98750.84;;;20.57;73.42
18527;BME280;9393;42.158;24.748;2022-11-20T13:12:24;98762.66;;;20.43;70.21
18527;BME280;9393;42.158;24.748;2022-11-20T13:15:44;98765.78;;;20.52;64.85
18527;BME280;9393;42.158;24.748;2022-11-20T13:18:53;98777.38;;;20.69;60.71
18527;BME280;9393;42.158;24.748;2022-11-20T13:21:58;98779.91;;;20.76;59.35
18527;BME280;9393;42.158;24.748;2022-11-20T13:25:02;98769.09;;;20.77;60.27
18527;BME280;9393;42.158;24.748;2022-11-20T13:28:26;98774.31;;;20.84;59.80
18527;BME280;9393;42.158;24.748;2022-11-20T13:31:32;98786.38;;;20.80;58.33
18527;BME280;9393;42.158;24.748;2022-11-20T13:34:37;98789.75;;;20.87;56.77
18527;BME280;9393;42.158;24.748;2022-11-20T13:37:42;98794.25;;;20.86;56.50
18527;BME280;9393;42.158;24.748;2022-11-20T13:40:51;98800.84;;;20.95;55.13
18527;BME280;9393;42.158;24.748;2022-11-20T13:43:59;98803.75;;;21.05;55.32
18527;BME280;9393;42.158;24.748;2022-11-20T13:47:20;98804.34;;;21.07;54.92
18527;BME280;9393;42.158;24.748;2022-11-20T13:50:39;98816.56;;;21.08;54.52
18527;BME280;9393;42.158;24.748;2022-11-20T13:53:58;98810.69;;;21.06;55.11
18527;BME280;9393;42.158;24.748;2022-11-20T13:57:17;98816.13;;;21.11;54.58
18527;BME280;9393;42.158;24.748;2022-11-20T14:00:25;98849.66;;;21.06;55.93
18527;BME280;9393;42.158;24.748;2022-11-20T14:03:31;98837.56;;;20.80;59.35
18527;BME280;9393;42.158;24.748;2022-11-20T14:06:58;98850.63;;;20.45;64.54
18527;BME280;9393;42.158;24.748;2022-11-20T14:10:04;98845.97;;;20.23;67.11
18527;BME280;9393;42.158;24.748;2022-11-20T14:13:15;98839.69;;;19.99;66.99
18527;BME280;9393;42.158;24.748;2022-11-20T14:16:21;98839.28;;;19.77;65.95
18527;BME280;9393;42.158;24.748;2022-11-20T14:19:27;98818.19;;;19.71;63.93
18527;BME280;9393;42.158;24.748;2022-11-20T14:22:32;98831.31;;;19.59;64.15
18527;BME280;9393;42.158;24.748;2022-11-20T14:25:42;98827.47;;;19.55;63.40
18527;BME280;9393;42.158;24.748;2022-11-20T14:28:48;98814.97;;;19.44;63.34
18527;BME280;9393;42.158;24.748;2022-11-20T14:31:54;98840.38;;;19.45;63.89
18527;BME280;9393;42.158;24.748;2022-11-20T14:35:03;98838.19;;;19.35;63.88
18527;BME280;9393;42.158;24.748;2022-11-20T14:38:13;98829.09;;;19.25;64.25
18527;BME280;9393;42.158;24.748;2022-11-20T14:41:20;98826.88;;;19.22;64.58
18527;BME280;9393;42.158;24.748;2022-11-20T14:44:27;98821.03;;;19.20;64.52
18527;BME280;9393;42.158;24.748;2022-11-20T14:47:31;98807.72;;;19.01;65.60
18527;BME280;9393;42.158;24.748;2022-11-20T14:50:35;98798.94;;;19.07;65.62
18527;BME280;9393;42.158;24.748;2022-11-20T14:53:41;98790.50;;;18.92;66.46
18527;BME280;9393;42.158;24.748;2022-11-20T14:56:55;98787.00;;;18.98;66.86
18527;BME280;9393;42.158;24.748;2022-11-20T15:00:17;98785.91;;;18.81;67.86
18527;BME280;9393;42.158;24.748;2022-11-20T15:03:22;98787.53;;;18.82;68.01
18527;BME280;9393;42.158;24.748;2022-11-20T15:06:32;98787.88;;;18.92;67.75
18527;BME280;9393;42.158;24.748;2022-11-20T15:09:36;98799.31;;;18.80;68.28
18527;BME280;9393;42.158;24.748;2022-11-20T15:12:47;98791.34;;;18.86;67.48
18527;BME280;9393;42.158;24.748;2022-11-20T15:15:53;98787.53;;;18.82;67.68
18527;BME280;9393;42.158;24.748;2022-11-20T15:18:58;98777.94;;;18.88;68.26
18527;BME280;9393;42.158;24.748;2022-11-20T15:22:06;98791.28;;;18.93;67.60
18527;BME280;9393;42.158;24.748;2022-11-20T15:25:16;98807.03;;;18.81;68.12
18527;BME280;9393;42.158;24.748;2022-11-20T15:28:27;98800.75;;;18.82;68.92
18527;BME280;9393;42.158;24.748;2022-11-20T15:31:32;98802.09;;;18.91;68.75
18527;BME280;9393;42.158;24.748;2022-11-20T15:34:36;98813.47;;;18.92;69.22
18527;BME280;9393;42.158;24.748;2022-11-20T15:37:41;98833.44;;;18.81;68.65
18527;BME280;9393;42.158;24.748;2022-11-20T15:40:45;98823.97;;;18.67;69.45
18527;BME280;9393;42.158;24.748;2022-11-20T15:43:50;98816.81;;;18.74;69.41
18527;BME280;9393;42.158;24.748;2022-11-20T15:46:54;98813.38;;;18.74;69.03
18527;BME280;9393;42.158;24.748;2022-11-20T15:49:57;98814.97;;;18.81;68.86
18527;BME280;9393;42.158;24.748;2022-11-20T15:53:01;98811.75;;;18.73;69.60
18527;BME280;9393;42.158;24.748;2022-11-20T15:56:05;98812.03;;;18.45;69.58
18527;BME280;9393;42.158;24.748;2022-11-20T15:59:10;98823.22;;;18.53;69.81
18527;BME280;9393;42.158;24.748;2022-11-20T16:02:16;98825.03;;;18.53;70.51
18527;BME280;9393;42.158;24.748;2022-11-20T16:05:20;98820.38;;;18.42;71.66
18527;BME280;9393;42.158;24.748;2022-11-20T16:08:25;98836.00;;;18.50;72.72
18527;BME280;9393;42.158;24.748;2022-11-20T16:11:30;98839.69;;;18.42;74.14
18527;BME280;9393;42.158;24.748;2022-11-20T16:14:35;98851.66;;;18.51;73.91
18527;BME280;9393;42.158;24.748;2022-11-20T16:17:56;98884.59;;;18.36;76.05
18527;BME280;9393;42.158;24.748;2022-11-20T16:21:00;98889.66;;;18.24;75.84
18527;BME280;9393;42.158;24.748;2022-11-20T16:24:06;98874.47;;;18.26;76.63
18527;BME280;9393;42.158;24.748;2022-11-20T16:27:11;98889.31;;;17.94;82.16
18527;BME280;9393;42.158;24.748;2022-11-20T16:30:16;98901.50;;;17.89;82.74